createdAt,value
2022-12-17T00:02:06.259Z,99259.26
2022-12-17T00:05:27.438Z,99261.61
2022-12-17T00:08:51.341Z,99251.11
2022-12-17T00:12:12.840Z,99246.20
2022-12-17T00:15:33.440Z,99239.27
2022-12-17T00:18:54.113Z,99232.66
2022-12-17T00:22:16.952Z,99238.91
2022-12-17T00:25:37.445Z,99243.83
2022-12-17T00:28:58.123Z,99241.29
2022-12-17T00:32:18.645Z,99243.14
2022-12-17T00:35:39.201Z,99243.13
2022-12-17T00:38:59.600Z,99246.69
2022-12-17T00:42:20.233Z,99253.98
2022-12-17T00:45:40.741Z,99261.42
2022-12-17T00:49:01.218Z,99270.39
2022-12-17T00:52:21.652Z,99273.11
2022-12-17T00:55:41.933Z,99279.70
2022-12-17T00:59:02.253Z,99285.96
2022-12-17T01:02:23.017Z,99286.98
2022-12-17T01:05:43.838Z,99284.45
2022-12-17T01:09:04.042Z,99282.59
2022-12-17T01:12:24.773Z,99281.23
2022-12-17T01:15:45.191Z,99286.80
2022-12-17T01:19:05.886Z,99297.45
2022-12-17T01:22:26.799Z,99301.85
2022-12-17T01:25:47.412Z,99316.23
2022-12-17T01:29:07.991Z,99325.19
2022-12-17T01:32:28.383Z,99330.77
2022-12-17T01:35:49.120Z,99333.45
2022-12-17T01:39:12.908Z,99331.77
2022-12-17T01:42:33.544Z,99338.02
2022-12-17T01:46:00.700Z,99331.23
2022-12-17T01:49:21.466Z,99318.55
2022-12-17T01:52:42.675Z,99316.52
2022-12-17T01:56:03.345Z,99316.51
2022-12-17T01:59:24.703Z,99314.13
2022-12-17T02:02:46.443Z,99309.05
2022-12-17T02:06:19.226Z,99313.10
2022-12-17T02:09:56.976Z,99312.92
2022-12-17T02:13:42.550Z,99309.70
2022-12-17T02:17:09.118Z,99310.86
2022-12-17T02:20:49.462Z,99309.84
2022-12-17T02:24:29.506Z,99301.36
2022-12-17T02:27:50.513Z,99294.92
2022-12-17T02:31:12.054Z,99276.64
2022-12-17T02:34:32.696Z,99284.25
2022-12-17T02:37:53.184Z,99286.27
2022-12-17T02:41:13.671Z,99288.27
2022-12-17T02:44:36.262Z,99281.68
2022-12-17T02:47:57.410Z,99281.01
2022-12-17T02:51:18.041Z,99281.68
2022-12-17T02:54:49.294Z,99316.19
2022-12-17T02:58:09.523Z,99356.45
2022-12-17T03:01:30.288Z,99385.88
2022-12-17T03:04:51.379Z,99389.42
2022-12-17T03:08:11.945Z,99404.14
2022-12-17T03:11:32.631Z,99428.84
2022-12-17T03:14:53.083Z,99415.48
2022-12-17T03:18:13.520Z,99397.38
2022-12-17T03:21:34.037Z,99394.31
2022-12-17T03:24:54.344Z,99396.52
2022-12-17T03:28:14.985Z,99394.83
2022-12-17T03:31:35.621Z,99403.96
2022-12-17T03:34:56.244Z,99399.56
2022-12-17T03:38:16.925Z,99383.65
2022-12-17T03:41:37.362Z,99376.88
2022-12-17T03:44:57.910Z,99378.55
2022-12-17T03:48:26.376Z,99373.81
2022-12-17T03:51:46.955Z,99378.87
2022-12-17T03:55:07.576Z,99373.77
2022-12-17T03:58:28.087Z,99370.21
2022-12-17T04:01:48.703Z,99372.58
2022-12-17T04:05:10.309Z,99372.40
2022-12-17T04:08:32.059Z,99389.29
2022-12-17T04:11:52.735Z,99401.13
2022-12-17T04:15:13.466Z,99397.91
2022-12-17T04:18:33.803Z,99400.78
2022-12-17T04:21:55.280Z,99408.89
2022-12-17T04:25:15.942Z,99419.20
2022-12-17T04:28:36.390Z,99419.02
2022-12-17T04:31:57.312Z,99424.26
2022-12-17T04:35:17.684Z,99444.03
2022-12-17T04:38:38.109Z,99448.77
2022-12-17T04:41:58.750Z,99449.60
2022-12-17T04:45:19.086Z,99448.92
2022-12-17T04:48:39.662Z,99442.49
2022-12-17T04:52:00.094Z,99434.88
2022-12-17T04:55:20.352Z,99435.90
2022-12-17T04:58:40.614Z,99428.13
2022-12-17T05:02:01.344Z,99426.26
2022-12-17T05:05:21.870Z,99422.52
2022-12-17T05:08:42.141Z,99432.82
2022-12-17T05:12:02.409Z,99438.89
2022-12-17T05:15:23.394Z,99436.86
2022-12-17T05:18:43.943Z,99437.54
2022-12-17T05:22:04.320Z,99449.70
2022-12-17T05:25:25.372Z,99456.10
2022-12-17T05:28:45.827Z,99459.98
2022-12-17T05:32:07.906Z,99453.70
2022-12-17T05:35:28.292Z,99455.73
2022-12-17T05:39:08.839Z,99462.30
2022-12-17T05:42:29.355Z,99462.98
2022-12-17T05:45:49.570Z,99461.77
2022-12-17T05:49:09.969Z,99462.11
2022-12-17T05:52:30.601Z,99463.77
2022-12-17T05:55:51.125Z,99464.77
2022-12-17T05:59:11.423Z,99466.98
2022-12-17T06:02:32.771Z,99470.02
2022-12-17T06:05:53.240Z,99471.86
2022-12-17T06:09:13.709Z,99480.48
2022-12-17T06:12:34.345Z,99485.88
2022-12-17T06:15:54.543Z,99494.33
2022-12-17T06:19:14.980Z,99496.16
2022-12-17T06:22:35.612Z,99511.38
2022-12-17T06:25:56.023Z,99522.54
2022-12-17T06:29:16.421Z,99535.05
2022-12-17T06:32:37.159Z,99542.14
2022-12-17T06:35:57.620Z,99546.87
2022-12-17T06:39:18.104Z,99553.56
2022-12-17T06:42:38.684Z,99562.90
2022-12-17T06:45:59.280Z,99563.79
2022-12-17T06:49:20.186Z,99556.27
2022-12-17T06:52:41.493Z,99564.35
2022-12-17T06:56:01.667Z,99576.32
2022-12-17T06:59:22.169Z,99587.35
2022-12-17T07:02:42.586Z,99595.23
2022-12-17T07:06:03.918Z,99607.16
2022-12-17T07:09:24.124Z,99614.41
2022-12-17T07:12:44.811Z,99617.64
2022-12-17T07:16:05.708Z,99626.18
2022-12-17T07:19:27.628Z,99636.13
2022-12-17T07:22:48.780Z,99648.64
2022-12-17T07:26:09.380Z,99662.52
2022-12-17T07:29:29.645Z,99662.87
2022-12-17T07:32:49.979Z,99660.84
2022-12-17T07:36:14.353Z,99651.58
2022-12-17T07:39:35.010Z,99639.73
2022-12-17T07:42:55.628Z,99643.98
2022-12-17T07:46:16.062Z,99652.55
2022-12-17T07:49:36.469Z,99653.26
2022-12-17T07:52:57.195Z,99653.29
2022-12-17T07:56:17.615Z,99656.90
2022-12-17T07:59:38.606Z,99664.91
2022-12-17T08:02:59.124Z,99673.75
2022-12-17T08:06:19.741Z,99676.02
2022-12-17T08:09:40.224Z,99682.34
2022-12-17T08:13:00.999Z,99690.93
2022-12-17T08:16:21.660Z,99702.03
2022-12-17T08:19:42.165Z,99707.69
2022-12-17T08:23:03.279Z,99717.34
2022-12-17T08:26:25.111Z,99722.38
2022-12-17T08:29:45.426Z,99724.30
2022-12-17T08:33:05.741Z,99725.74
2022-12-17T08:36:27.365Z,99731.81
2022-12-17T08:39:47.974Z,99737.55
2022-12-17T08:43:15.187Z,99746.53
2022-12-17T08:46:35.446Z,99751.09
2022-12-17T08:49:55.629Z,99748.73
2022-12-17T08:53:20.894Z,99749.79
2022-12-17T08:56:41.468Z,99752.17
2022-12-17T09:00:02.139Z,99756.60
2022-12-17T09:03:23.049Z,99757.65
2022-12-17T09:06:43.343Z,99764.44
2022-12-17T09:10:03.885Z,99771.38
2022-12-17T09:13:24.443Z,99772.23
2022-12-17T09:16:58.428Z,99773.55
2022-12-17T09:20:18.964Z,99775.31
2022-12-17T09:23:39.889Z,99770.69
2022-12-17T09:27:00.562Z,99769.56
2022-12-17T09:30:21.769Z,99765.66
2022-12-17T09:33:42.068Z,99766.31
2022-12-17T09:37:02.469Z,99765.80
2022-12-17T09:40:23.285Z,99756.52
2022-12-17T09:44:11.953Z,99749.24
2022-12-17T09:48:01.875Z,99748.23
2022-12-17T09:51:44.672Z,99756.05
2022-12-17T09:55:07.681Z,99751.40
2022-12-17T09:58:43.305Z,99752.72
2022-12-17T10:02:04.107Z,99750.35
2022-12-17T10:05:28.612Z,99746.81
2022-12-17T10:08:49.269Z,99746.45
2022-12-17T10:12:09.876Z,99752.15
2022-12-17T10:15:33.401Z,99757.52
2022-12-17T10:18:53.852Z,99766.58
2022-12-17T10:22:32.658Z,99779.44
2022-12-17T10:25:54.254Z,99790.20
2022-12-17T10:29:23.173Z,99785.83
2022-12-17T10:32:45.053Z,99789.30
2022-12-17T10:36:05.390Z,99792.98
2022-12-17T10:39:25.929Z,99796.34
2022-12-17T10:42:48.920Z,99798.84
2022-12-17T10:46:15.476Z,99799.27
2022-12-17T10:49:38.123Z,99797.48
2022-12-17T10:52:58.600Z,99802.67
2022-12-17T10:56:19.158Z,99815.83
2022-12-17T10:59:51.557Z,99818.60
2022-12-17T11:03:12.212Z,99822.73
2022-12-17T11:06:42.510Z,99823.46
2022-12-17T11:10:09.970Z,99822.02
2022-12-17T11:13:48.136Z,99807.11
2022-12-17T11:17:12.052Z,99806.00
2022-12-17T11:20:45.077Z,99806.21
2022-12-17T11:24:07.886Z,99807.27
2022-12-17T11:27:47.047Z,99818.17
2022-12-17T11:31:19.266Z,99826.01
2022-12-17T11:35:06.590Z,99828.42
2022-12-17T11:38:39.829Z,99837.86
2022-12-17T11:42:15.401Z,99840.37
2022-12-17T11:45:42.120Z,99850.33
2022-12-17T11:49:25.280Z,99859.54
2022-12-17T11:52:49.366Z,99863.41
2022-12-17T11:56:16.607Z,99866.16
2022-12-17T11:59:51.113Z,99872.55
2022-12-17T12:03:28.043Z,99874.23
2022-12-17T12:06:58.357Z,99875.06
2022-12-17T12:10:45.699Z,99873.60
2022-12-17T12:14:41.796Z,99869.30
2022-12-17T12:18:08.866Z,99879.09
2022-12-17T12:21:37.241Z,99875.55
2022-12-17T12:25:05.384Z,99882.88
2022-12-17T12:28:46.004Z,99889.15
2022-12-17T12:32:16.545Z,99887.57
2022-12-17T12:36:00.513Z,99887.29
2022-12-17T12:39:20.760Z,99898.98
2022-12-17T12:42:58.160Z,99902.94
2022-12-17T12:46:29.824Z,99919.95
2022-12-17T12:50:18.033Z,99938.15
2022-12-17T12:53:38.587Z,99946.05
2022-12-17T12:56:59.114Z,99951.44
2022-12-17T13:00:19.260Z,99957.66
2022-12-17T13:03:47.164Z,99952.39
2022-12-17T13:06:57.081Z,99964.52
2022-12-17T13:09:59.562Z,99966.16
2022-12-17T13:13:34.926Z,99967.30
2022-12-17T13:16:53.694Z,99970.61
2022-12-17T13:19:58.639Z,99974.77
2022-12-17T13:23:09.631Z,99982.54
2022-12-17T13:26:42.702Z,99989.31
2022-12-17T13:29:44.466Z,99992.36
2022-12-17T13:32:46.035Z,99988.15
2022-12-17T13:36:09.471Z,99994.31
2022-12-17T13:39:25.606Z,100000.44
2022-12-17T13:42:32.208Z,100005.67
2022-12-17T13:45:36.273Z,100007.52
2022-12-17T13:48:38.388Z,100013.92
2022-12-17T13:51:40.473Z,100016.45
2022-12-17T13:54:42.231Z,100028.62
2022-12-17T13:57:48.663Z,100032.71
2022-12-17T14:00:51.004Z,100031.02
2022-12-17T14:04:11.192Z,100040.33
2022-12-17T14:07:13.026Z,100039.92
2022-12-17T14:10:19.355Z,100050.51
2022-12-17T14:13:21.224Z,100052.62
2022-12-17T14:16:23.392Z,100055.44
2022-12-17T14:19:25.677Z,100056.23
2022-12-17T14:22:37.590Z,100065.64
2022-12-17T14:25:40.593Z,100064.70
2022-12-17T14:28:51.017Z,100070.75
2022-12-17T14:31:55.044Z,100077.36
2022-12-17T14:35:00.643Z,100081.90
2022-12-17T14:38:04.067Z,100088.07
2022-12-17T14:41:32.944Z,100089.71
2022-12-17T14:44:34.820Z,100101.01
2022-12-17T14:47:37.067Z,100101.86
2022-12-17T14:50:38.640Z,100109.54
2022-12-17T14:53:40.356Z,100116.42
2022-12-17T14:56:42.289Z,100120.28
2022-12-17T14:59:43.992Z,100122.11
2022-12-17T15:02:52.231Z,100131.22
2022-12-17T15:05:58.024Z,100136.45
2022-12-17T15:08:59.839Z,100144.06
2022-12-17T15:12:01.393Z,100150.55
2022-12-17T15:15:03.796Z,100154.60
2022-12-17T15:18:05.482Z,100157.35
2022-12-17T15:21:07.191Z,100157.61
2022-12-17T15:24:12.243Z,100160.45
2022-12-17T15:27:16.626Z,100155.86
2022-12-17T15:30:18.933Z,100160.10
2022-12-17T15:33:20.914Z,100161.80
2022-12-17T15:36:22.557Z,100165.66
2022-12-17T15:39:24.232Z,100173.01
2022-12-17T15:42:44.849Z,100178.65
2022-12-17T15:45:49.224Z,100184.91
2022-12-17T15:48:51.301Z,100191.80
2022-12-17T15:51:53.122Z,100193.66
2022-12-17T15:54:54.943Z,100197.46
2022-12-17T15:57:56.647Z,100200.59
2022-12-17T16:00:58.616Z,100201.15
2022-12-17T16:04:00.415Z,100202.40
2022-12-17T16:07:02.216Z,100202.83
2022-12-17T16:10:07.488Z,100208.99
2022-12-17T16:13:09.210Z,100212.48
2022-12-17T16:16:10.958Z,100217.82
2022-12-17T16:19:12.636Z,100220.56
2022-12-17T16:22:14.723Z,100220.66
2022-12-17T16:25:16.507Z,100222.65
2022-12-17T16:28:18.268Z,100229.73
2022-12-17T16:31:19.991Z,100230.05
2022-12-17T16:34:21.763Z,100236.31
2022-12-17T16:37:23.694Z,100239.73
2022-12-17T16:40:25.461Z,100239.36
2022-12-17T16:43:27.875Z,100242.50
2022-12-17T16:46:35.377Z,100250.54
2022-12-17T16:49:37.263Z,100256.92
2022-12-17T16:52:39.048Z,100261.94
2022-12-17T16:55:42.317Z,100263.44
2022-12-17T16:58:44.198Z,100263.50
2022-12-17T17:01:46.839Z,100268.56
2022-12-17T17:04:48.908Z,100273.15
2022-12-17T17:07:50.556Z,100273.36
2022-12-17T17:10:52.534Z,100271.48
2022-12-17T17:13:54.500Z,100275.89
2022-12-17T17:16:56.311Z,100282.20
2022-12-17T17:19:57.979Z,100285.21
2022-12-17T17:22:59.956Z,100293.79
2022-12-17T17:26:01.891Z,100299.20
2022-12-17T17:29:04.646Z,100305.30
2022-12-17T17:32:11.406Z,100309.36
2022-12-17T17:35:14.671Z,100312.55
2022-12-17T17:38:16.481Z,100315.13
2022-12-17T17:41:20.572Z,100321.23
2022-12-17T17:44:22.610Z,100324.59
2022-12-17T17:47:24.417Z,100326.95
2022-12-17T17:50:26.123Z,100330.73
2022-12-17T17:53:27.921Z,100332.43
2022-12-17T17:56:30.778Z,100335.14
2022-12-17T17:59:34.161Z,100343.38
2022-12-17T18:02:36.657Z,100353.34
2022-12-17T18:05:41.728Z,100362.46
2022-12-17T18:08:44.049Z,100373.14
2022-12-17T18:11:45.766Z,100372.32
2022-12-17T18:15:12.477Z,100378.22
2022-12-17T18:18:14.301Z,100381.91
2022-12-17T18:21:18.616Z,100383.73
2022-12-17T18:24:22.877Z,100379.45
2022-12-17T18:27:24.660Z,100378.30
2022-12-17T18:30:26.365Z,100384.92
2022-12-17T18:33:28.041Z,100393.69
2022-12-17T18:36:33.277Z,100396.58
2022-12-17T18:39:35.055Z,100403.48
2022-12-17T18:42:55.367Z,100412.10
2022-12-17T18:45:57.061Z,100417.38
2022-12-17T18:49:01.777Z,100420.83
2022-12-17T18:52:03.645Z,100417.96
2022-12-17T18:55:06.162Z,100424.56
2022-12-17T18:58:09.005Z,100427.89
2022-12-17T19:01:23.372Z,100438.28
2022-12-17T19:04:25.890Z,100440.27
2022-12-17T19:07:27.608Z,100444.63
2022-12-17T19:10:29.501Z,100452.25
2022-12-17T19:13:33.463Z,100454.83
2022-12-17T19:16:35.311Z,100456.02
2022-12-17T19:19:37.068Z,100458.77
2022-12-17T19:22:38.698Z,100454.16
2022-12-17T19:26:09.929Z,100460.45
2022-12-17T19:29:15.967Z,100467.70
2022-12-17T19:32:17.818Z,100472.91
2022-12-17T19:35:19.374Z,100478.63
2022-12-17T19:38:21.143Z,100483.46
2022-12-17T19:41:24.064Z,100485.92
2022-12-17T19:44:26.930Z,100495.54
2022-12-17T19:47:30.675Z,100497.19
2022-12-17T19:50:33.979Z,100498.86
2022-12-17T19:53:37.268Z,100504.11
2022-12-17T19:56:39.072Z,100509.73
2022-12-17T19:59:40.831Z,100514.45
2022-12-17T20:02:42.640Z,100517.71
2022-12-17T20:05:45.012Z,100518.58
2022-12-17T20:08:46.955Z,100525.33
2022-12-17T20:11:48.604Z,100529.50
2022-12-17T20:14:50.306Z,100532.85
2022-12-17T20:17:51.977Z,100540.42
2022-12-17T20:21:04.790Z,100545.98
2022-12-17T20:24:06.785Z,100554.90
2022-12-17T20:27:08.556Z,100561.79
2022-12-17T20:30:10.685Z,100566.77
2022-12-17T20:33:12.368Z,100566.83
2022-12-17T20:36:16.521Z,100570.66
2022-12-17T20:39:23.280Z,100576.56
2022-12-17T20:42:28.177Z,100587.47
2022-12-17T20:45:30.022Z,100595.88
2022-12-17T20:48:31.984Z,100602.08
2022-12-17T20:51:34.160Z,100610.64
2022-12-17T20:54:35.768Z,100614.70
2022-12-17T20:57:37.467Z,100616.80
2022-12-17T21:00:40.518Z,100629.04
2022-12-17T21:03:42.799Z,100631.65
2022-12-17T21:06:46.762Z,100636.44
2022-12-17T21:09:48.491Z,100640.23
2022-12-17T21:13:10.445Z,100640.18
2022-12-17T21:16:24.356Z,100642.52
2022-12-17T21:19:27.634Z,100644.17
2022-12-17T21:22:29.489Z,100646.70
2022-12-17T21:25:31.174Z,100653.27
2022-12-17T21:28:34.437Z,100655.22
2022-12-17T21:31:40.463Z,100658.05
2022-12-17T21:34:42.307Z,100662.40
2022-12-17T21:37:44.023Z,100665.95
2022-12-17T21:40:46.336Z,100672.99
2022-12-17T21:43:48.380Z,100676.14
2022-12-17T21:46:50.550Z,100678.83
2022-12-17T21:49:52.536Z,100683.24
2022-12-17T21:52:54.341Z,100691.72
2022-12-17T21:56:06.149Z,100697.65
2022-12-17T21:59:08.312Z,100703.87
2022-12-17T22:02:10.763Z,100705.86
2022-12-17T22:05:17.699Z,100704.13
2022-12-17T22:08:20.003Z,100709.23
2022-12-17T22:11:25.370Z,100713.80
2022-12-17T22:14:28.779Z,100725.11
2022-12-17T22:17:30.602Z,100728.68
2022-12-17T22:20:32.799Z,100736.61
2022-12-17T22:23:34.611Z,100740.03
2022-12-17T22:26:36.870Z,100742.92
2022-12-17T22:29:57.563Z,100749.70
2022-12-17T22:32:59.576Z,100750.16
2022-12-17T22:38:03.307Z,100752.13
2022-12-17T22:44:29.444Z,100756.05
2022-12-17T22:44:44.815Z,100752.98
2022-12-17T22:46:27.624Z,100753.28
2022-12-17T22:49:29.359Z,100753.30
2022-12-17T22:52:31.199Z,100758.27
2022-12-17T22:55:33.647Z,100761.85
2022-12-17T22:58:38.832Z,100769.33
2022-12-17T23:01:40.620Z,100772.59
2022-12-17T23:04:42.663Z,100780.34
2022-12-17T23:07:44.332Z,100783.73
2022-12-17T23:10:46.100Z,100786.73
2022-12-17T23:13:48.158Z,100786.52
2022-12-17T23:16:49.945Z,100794.10
2022-12-17T23:19:51.931Z,100801.02
2022-12-17T23:22:53.746Z,100802.86
2022-12-17T23:25:55.788Z,100807.42
2022-12-17T23:28:59.889Z,100811.33
2022-12-17T23:32:02.979Z,100810.97
2022-12-17T23:35:05.408Z,100809.02
2022-12-17T23:38:07.129Z,100806.66
2022-12-17T23:41:17.278Z,100811.67
2022-12-17T23:44:19.025Z,100810.36
2022-12-17T23:47:20.767Z,100822.71
2022-12-17T23:50:22.423Z,100828.84
2022-12-17T23:53:24.318Z,100828.40
2022-12-17T23:56:27.332Z,100834.85
2022-12-17T23:59:29.055Z,100839.11
